createdAt,value
2022-12-31T00:01:10.561Z,8.76
2022-12-31T00:02:42.243Z,8.76
2022-12-31T00:04:13.955Z,8.76
2022-12-31T00:05:45.660Z,8.74
2022-12-31T00:07:17.142Z,8.72
2022-12-31T00:08:49.161Z,8.72
2022-12-31T00:10:20.870Z,8.74
2022-12-31T00:11:52.457Z,8.77
2022-12-31T00:13:24.297Z,8.82
2022-12-31T00:14:55.978Z,8.85
2022-12-31T00:16:29.233Z,8.88
2022-12-31T00:18:00.970Z,8.90
2022-12-31T00:19:32.725Z,8.90
2022-12-31T00:21:05.187Z,8.87
2022-12-31T00:22:37.216Z,8.86
2022-12-31T00:24:09.000Z,8.84
2022-12-31T00:25:40.632Z,8.80
2022-12-31T00:27:12.367Z,8.79
2022-12-31T00:28:43.989Z,8.80
2022-12-31T00:30:15.686Z,8.82
2022-12-31T00:31:47.356Z,8.86
2022-12-31T00:33:18.939Z,8.89
2022-12-31T00:34:50.597Z,8.92
2022-12-31T00:36:24.368Z,8.99
2022-12-31T00:37:56.069Z,9.02
2022-12-31T00:39:27.611Z,9.00
2022-12-31T00:40:59.170Z,8.93
2022-12-31T00:42:30.733Z,8.84
2022-12-31T00:44:02.408Z,8.74
2022-12-31T00:45:33.960Z,8.65
2022-12-31T00:47:05.564Z,8.58
2022-12-31T00:48:37.433Z,8.49
2022-12-31T00:50:09.075Z,8.46
2022-12-31T00:51:40.699Z,8.46
2022-12-31T00:53:12.290Z,8.43
2022-12-31T00:54:44.397Z,8.41
2022-12-31T00:56:19.701Z,8.36
2022-12-31T00:57:51.327Z,8.31
2022-12-31T00:59:23.027Z,8.29
2022-12-31T01:00:54.532Z,8.23
2022-12-31T01:02:26.231Z,8.12
2022-12-31T01:03:59.035Z,8.06
2022-12-31T01:05:31.060Z,7.98
2022-12-31T01:07:02.757Z,7.95
2022-12-31T01:08:34.365Z,7.89
2022-12-31T01:10:06.236Z,7.82
2022-12-31T01:11:37.936Z,7.76
2022-12-31T01:13:09.507Z,7.70
2022-12-31T01:14:41.204Z,7.61
2022-12-31T01:16:13.472Z,7.51
2022-12-31T01:17:45.075Z,7.43
2022-12-31T01:19:18.782Z,7.40
2022-12-31T01:20:50.407Z,7.38
2022-12-31T01:22:22.001Z,7.40
2022-12-31T01:23:53.619Z,7.39
2022-12-31T01:25:25.464Z,7.36
2022-12-31T01:26:58.184Z,7.37
2022-12-31T01:28:29.822Z,7.37
2022-12-31T01:30:01.387Z,7.41
2022-12-31T01:31:33.746Z,7.44
2022-12-31T01:33:05.270Z,7.44
2022-12-31T01:34:36.932Z,7.46
2022-12-31T01:36:12.721Z,7.47
2022-12-31T01:37:44.373Z,7.51
2022-12-31T01:39:15.986Z,7.52
2022-12-31T01:40:47.508Z,7.51
2022-12-31T01:42:19.131Z,7.46
2022-12-31T01:44:01.043Z,7.44
2022-12-31T01:45:32.687Z,7.40
2022-12-31T01:47:04.262Z,7.38
2022-12-31T01:48:35.852Z,7.33
2022-12-31T01:50:12.090Z,7.32
2022-12-31T01:51:43.785Z,7.29
2022-12-31T01:53:15.387Z,7.29
2022-12-31T01:54:54.456Z,7.35
2022-12-31T01:56:26.341Z,7.42
2022-12-31T01:57:59.412Z,7.44
2022-12-31T01:59:31.190Z,7.47
2022-12-31T02:01:02.902Z,7.52
2022-12-31T02:02:34.541Z,7.59
2022-12-31T02:04:07.459Z,7.60
2022-12-31T02:05:41.600Z,7.60
2022-12-31T02:07:13.264Z,7.58
2022-12-31T02:08:45.145Z,7.61
2022-12-31T02:10:16.949Z,7.59
2022-12-31T02:11:48.623Z,7.61
2022-12-31T02:13:20.238Z,7.58
2022-12-31T02:14:52.164Z,7.54
2022-12-31T02:16:32.723Z,7.51
2022-12-31T02:18:08.834Z,7.47
2022-12-31T02:19:40.396Z,7.48
2022-12-31T02:21:12.071Z,7.50
2022-12-31T02:22:55.923Z,7.49
2022-12-31T02:24:30.399Z,7.55
2022-12-31T02:26:11.297Z,7.57
2022-12-31T02:27:46.163Z,7.62
2022-12-31T02:29:28.182Z,7.65
2022-12-31T02:31:29.698Z,7.71
2022-12-31T02:33:13.628Z,7.74
2022-12-31T02:34:47.046Z,7.74
2022-12-31T02:36:20.170Z,7.76
2022-12-31T02:37:53.680Z,7.73
2022-12-31T02:39:25.584Z,7.68
2022-12-31T02:40:57.427Z,7.63
2022-12-31T02:42:29.069Z,7.64
2022-12-31T02:44:01.091Z,7.61
2022-12-31T02:45:34.684Z,7.60
2022-12-31T02:47:08.787Z,7.56
2022-12-31T02:48:51.295Z,7.51
2022-12-31T02:50:28.640Z,7.41
2022-12-31T02:52:07.207Z,7.36
2022-12-31T02:53:47.903Z,7.26
2022-12-31T02:55:24.576Z,7.17
2022-12-31T02:57:17.134Z,7.09
2022-12-31T02:59:16.012Z,7.04
2022-12-31T03:01:20.443Z,7.01
2022-12-31T03:03:03.332Z,6.97
2022-12-31T03:04:42.793Z,6.92
2022-12-31T03:08:03.704Z,6.87
2022-12-31T03:09:35.301Z,6.84
2022-12-31T03:11:26.720Z,6.85
2022-12-31T03:12:58.456Z,6.81
2022-12-31T03:14:30.009Z,6.80
2022-12-31T03:16:01.643Z,6.75
2022-12-31T03:17:34.126Z,6.70
2022-12-31T03:19:24.317Z,6.67
2022-12-31T03:21:14.337Z,6.64
2022-12-31T03:22:45.937Z,6.53
2022-12-31T03:24:35.904Z,6.45
2022-12-31T03:26:11.396Z,6.37
2022-12-31T03:27:43.918Z,6.33
2022-12-31T03:29:15.476Z,6.31
2022-12-31T03:30:48.545Z,6.29
2022-12-31T03:32:20.202Z,6.23
2022-12-31T03:33:51.867Z,6.19
2022-12-31T03:35:23.756Z,6.16
2022-12-31T03:36:55.265Z,6.14
2022-12-31T03:38:26.926Z,6.13
2022-12-31T03:39:59.091Z,6.10
2022-12-31T03:41:30.668Z,6.11
2022-12-31T03:43:02.313Z,6.11
2022-12-31T03:44:33.967Z,6.07
2022-12-31T03:46:05.713Z,6.04
2022-12-31T03:47:37.410Z,6.01
2022-12-31T03:49:09.778Z,5.98
2022-12-31T03:50:41.289Z,5.97
2022-12-31T03:52:12.949Z,5.95
2022-12-31T03:53:44.735Z,5.99
2022-12-31T03:55:16.372Z,6.05
2022-12-31T03:56:49.546Z,6.02
2022-12-31T03:58:21.580Z,6.02
2022-12-31T03:59:53.174Z,6.04
2022-12-31T04:01:25.557Z,5.99
2022-12-31T04:02:57.182Z,5.96
2022-12-31T04:04:28.790Z,5.91
2022-12-31T04:06:00.266Z,5.83
2022-12-31T04:07:31.926Z,5.77
2022-12-31T04:09:03.688Z,5.74
2022-12-31T04:10:35.184Z,5.72
2022-12-31T04:12:06.870Z,5.67
2022-12-31T04:13:38.446Z,5.62
2022-12-31T04:15:10.561Z,5.60
2022-12-31T04:16:42.227Z,5.57
2022-12-31T04:18:13.768Z,5.57
2022-12-31T04:19:45.428Z,5.61
2022-12-31T04:21:16.993Z,5.68
2022-12-31T04:22:48.501Z,5.72
2022-12-31T04:24:20.156Z,5.72
2022-12-31T04:25:51.745Z,5.69
2022-12-31T04:27:23.287Z,5.65
2022-12-31T04:28:54.858Z,5.66
2022-12-31T04:30:26.754Z,5.68
2022-12-31T04:31:58.278Z,5.70
2022-12-31T04:33:29.932Z,5.76
2022-12-31T04:35:01.651Z,5.79
2022-12-31T04:36:33.318Z,5.83
2022-12-31T04:38:05.140Z,5.85
2022-12-31T04:39:36.736Z,5.88
2022-12-31T04:41:17.289Z,5.88
2022-12-31T04:42:48.904Z,5.91
2022-12-31T04:44:22.109Z,5.93
2022-12-31T04:45:53.701Z,5.95
2022-12-31T04:47:25.330Z,5.94
2022-12-31T04:48:57.082Z,5.91
2022-12-31T04:50:28.689Z,5.92
2022-12-31T04:52:00.381Z,5.92
2022-12-31T04:53:31.963Z,5.87
2022-12-31T04:55:03.764Z,5.80
2022-12-31T04:56:36.828Z,5.78
2022-12-31T04:58:08.508Z,5.73
2022-12-31T04:59:40.938Z,5.67
2022-12-31T05:01:12.651Z,5.62
2022-12-31T05:02:44.335Z,5.60
2022-12-31T05:04:16.333Z,5.61
2022-12-31T05:05:47.991Z,5.56
2022-12-31T05:07:19.727Z,5.52
2022-12-31T05:08:51.420Z,5.48
2022-12-31T05:10:23.649Z,5.46
2022-12-31T05:11:55.332Z,5.45
2022-12-31T05:13:32.894Z,5.45
2022-12-31T05:15:05.094Z,5.46
2022-12-31T05:16:36.678Z,5.49
2022-12-31T05:18:08.510Z,5.53
2022-12-31T05:19:40.004Z,5.56
2022-12-31T05:21:11.691Z,5.62
2022-12-31T05:22:43.320Z,5.67
2022-12-31T05:24:14.839Z,5.69
2022-12-31T05:25:46.644Z,5.74
2022-12-31T05:27:18.227Z,5.75
2022-12-31T05:28:49.819Z,5.76
2022-12-31T05:30:21.466Z,5.78
2022-12-31T05:31:53.108Z,5.80
2022-12-31T05:33:24.899Z,5.85
2022-12-31T05:34:57.416Z,5.91
2022-12-31T05:36:29.058Z,5.92
2022-12-31T05:38:01.063Z,5.90
2022-12-31T05:39:32.671Z,5.93
2022-12-31T05:41:04.895Z,5.93
2022-12-31T05:42:36.510Z,5.93
2022-12-31T05:44:08.103Z,5.91
2022-12-31T05:45:39.613Z,5.92
2022-12-31T05:47:12.519Z,5.92
2022-12-31T05:48:44.147Z,5.87
2022-12-31T05:50:15.972Z,5.81
2022-12-31T05:51:47.443Z,5.77
2022-12-31T05:53:19.787Z,5.75
2022-12-31T05:54:51.298Z,5.76
2022-12-31T05:56:22.802Z,5.72
2022-12-31T05:57:54.861Z,5.68
2022-12-31T05:59:26.626Z,5.65
2022-12-31T06:00:58.370Z,5.64
2022-12-31T06:02:30.009Z,5.66
2022-12-31T06:04:01.647Z,5.65
2022-12-31T06:05:33.308Z,5.62
2022-12-31T06:07:04.869Z,5.59
2022-12-31T06:08:36.454Z,5.58
2022-12-31T06:10:08.411Z,5.55
2022-12-31T06:11:39.959Z,5.53
2022-12-31T06:13:11.673Z,5.52
2022-12-31T06:14:45.793Z,5.48
2022-12-31T06:16:18.188Z,5.43
2022-12-31T06:17:50.286Z,5.40
2022-12-31T06:19:21.882Z,5.38
2022-12-31T06:20:53.499Z,5.36
2022-12-31T06:22:25.074Z,5.34
2022-12-31T06:23:56.622Z,5.35
2022-12-31T06:25:28.187Z,5.35
2022-12-31T06:26:59.850Z,5.34
2022-12-31T06:28:31.523Z,5.35
2022-12-31T06:30:03.321Z,5.31
2022-12-31T06:31:35.011Z,5.29
2022-12-31T06:33:06.720Z,5.28
2022-12-31T06:34:38.381Z,5.31
2022-12-31T06:36:11.991Z,5.33
2022-12-31T06:37:43.550Z,5.39
2022-12-31T06:39:15.161Z,5.52
2022-12-31T06:40:46.794Z,5.63
2022-12-31T06:42:18.407Z,5.79
2022-12-31T06:43:50.024Z,5.97
2022-12-31T06:45:21.657Z,6.08
2022-12-31T06:46:53.296Z,6.23
2022-12-31T06:48:24.972Z,6.35
2022-12-31T06:49:56.781Z,6.48
2022-12-31T06:51:28.322Z,6.62
2022-12-31T06:53:00.498Z,6.73
2022-12-31T06:54:32.070Z,6.86
2022-12-31T06:58:03.104Z,7.18
2022-12-31T06:59:46.689Z,7.32
2022-12-31T07:04:04.348Z,7.68
2022-12-31T07:06:02.784Z,7.83
2022-12-31T07:07:37.172Z,7.95
2022-12-31T07:09:08.626Z,8.07
2022-12-31T07:10:43.656Z,8.18
2022-12-31T07:12:33.932Z,8.36
2022-12-31T07:14:18.058Z,8.55
2022-12-31T07:15:49.747Z,8.69
2022-12-31T07:17:24.509Z,8.82
2022-12-31T07:18:55.990Z,8.97
2022-12-31T07:20:27.843Z,9.03
2022-12-31T07:21:59.701Z,9.10
2022-12-31T07:23:31.434Z,9.15
2022-12-31T07:25:03.418Z,9.17
2022-12-31T07:26:52.634Z,9.22
2022-12-31T07:28:35.266Z,9.14
2022-12-31T07:30:09.896Z,9.07
2022-12-31T07:31:53.294Z,9.03
2022-12-31T07:33:38.013Z,8.94
2022-12-31T07:35:17.548Z,8.97
2022-12-31T07:36:58.615Z,9.02
2022-12-31T07:38:33.834Z,9.09
2022-12-31T07:40:31.591Z,9.15
2022-12-31T07:42:05.460Z,9.25
2022-12-31T07:43:42.525Z,9.34
2022-12-31T07:45:36.076Z,9.41
2022-12-31T07:47:14.433Z,9.52
2022-12-31T07:48:46.056Z,9.67
2022-12-31T07:50:18.525Z,9.76
2022-12-31T07:51:50.304Z,9.83
2022-12-31T07:53:22.467Z,9.74
2022-12-31T07:54:54.022Z,9.79
2022-12-31T07:56:25.558Z,9.86
2022-12-31T07:58:07.498Z,9.90
2022-12-31T07:59:59.797Z,9.99
2022-12-31T08:01:41.314Z,10.07
2022-12-31T08:03:23.890Z,10.07
2022-12-31T08:15:55.380Z,10.30
2022-12-31T08:17:27.647Z,10.31
2022-12-31T08:19:00.207Z,10.32
2022-12-31T08:20:33.142Z,10.37
2022-12-31T08:22:09.122Z,10.40
2022-12-31T08:26:27.778Z,10.59
2022-12-31T08:29:03.660Z,10.67
2022-12-31T08:35:46.200Z,11.11
2022-12-31T08:39:52.535Z,11.43
2022-12-31T08:52:06.051Z,11.95
2022-12-31T08:54:00.943Z,12.00
2022-12-31T08:56:01.946Z,12.04
2022-12-31T08:59:40.375Z,12.09
2022-12-31T09:01:09.365Z,12.15
2022-12-31T09:02:48.419Z,12.25
2022-12-31T09:09:41.275Z,12.38
2022-12-31T09:33:20.582Z,13.01
2022-12-31T09:34:58.675Z,13.30
2022-12-31T09:36:31.579Z,13.50
2022-12-31T09:38:11.146Z,13.65
2022-12-31T09:39:44.516Z,13.71
2022-12-31T09:41:16.673Z,13.71
2022-12-31T09:42:51.240Z,13.61
2022-12-31T09:44:38.204Z,13.62
2022-12-31T09:46:30.081Z,13.76
2022-12-31T09:48:20.007Z,13.85
2022-12-31T09:49:52.277Z,13.86
2022-12-31T09:51:40.381Z,13.90
2022-12-31T09:53:30.136Z,13.90
2022-12-31T09:55:02.225Z,13.90
2022-12-31T09:56:37.392Z,13.96
2022-12-31T09:58:20.988Z,14.04
2022-12-31T09:59:53.019Z,14.20
2022-12-31T10:01:35.016Z,14.35
2022-12-31T10:03:19.023Z,14.43
2022-12-31T10:04:53.575Z,14.50
2022-12-31T10:06:47.611Z,14.61
2022-12-31T10:08:31.636Z,14.62
2022-12-31T10:10:05.817Z,14.70
2022-12-31T10:11:55.939Z,14.79
2022-12-31T10:13:49.097Z,14.86
2022-12-31T10:15:35.266Z,14.89
2022-12-31T10:17:33.895Z,15.04
2022-12-31T10:19:28.196Z,15.16
2022-12-31T10:21:20.363Z,15.19
2022-12-31T10:23:09.959Z,15.30
2022-12-31T10:24:45.818Z,15.35
2022-12-31T10:26:27.450Z,15.33
2022-12-31T10:28:04.225Z,15.40
2022-12-31T10:29:47.461Z,15.54
2022-12-31T10:31:38.884Z,15.61
2022-12-31T10:33:36.525Z,15.52
2022-12-31T10:35:11.240Z,15.59
2022-12-31T10:36:52.627Z,15.58
2022-12-31T10:38:33.380Z,15.54
2022-12-31T10:40:10.446Z,15.59
2022-12-31T10:41:50.650Z,15.62
2022-12-31T10:43:31.383Z,15.72
2022-12-31T10:45:15.227Z,15.76
2022-12-31T10:47:05.670Z,15.88
2022-12-31T10:48:55.966Z,16.06
2022-12-31T10:50:27.987Z,16.24
2022-12-31T10:52:26.354Z,16.34
2022-12-31T10:54:07.355Z,16.44
2022-12-31T10:56:04.499Z,16.61
2022-12-31T10:57:44.867Z,16.76
2022-12-31T10:59:33.723Z,16.84
2022-12-31T11:01:14.133Z,16.92
2022-12-31T11:03:11.269Z,16.88
2022-12-31T11:04:50.540Z,16.96
2022-12-31T11:06:39.402Z,17.04
2022-12-31T11:08:29.241Z,17.16
2022-12-31T11:10:19.665Z,17.28
2022-12-31T11:11:59.091Z,17.34
2022-12-31T11:13:48.544Z,17.44
2022-12-31T11:15:23.316Z,17.51
2022-12-31T11:16:54.917Z,17.64
2022-12-31T11:18:35.579Z,17.77
2022-12-31T11:20:11.044Z,17.85
2022-12-31T11:22:12.204Z,17.93
2022-12-31T11:23:43.775Z,18.02
2022-12-31T11:25:41.562Z,18.02
2022-12-31T11:27:31.809Z,18.12
2022-12-31T11:29:13.362Z,18.27
2022-12-31T11:30:50.829Z,18.35
2022-12-31T11:32:31.560Z,18.52
2022-12-31T11:34:18.291Z,18.63
2022-12-31T11:36:10.283Z,18.71
2022-12-31T11:37:46.304Z,18.71
2022-12-31T11:39:27.297Z,18.65
2022-12-31T11:41:08.507Z,18.47
2022-12-31T11:42:59.109Z,18.40
2022-12-31T11:44:44.921Z,18.49
2022-12-31T11:46:16.687Z,18.63
2022-12-31T11:48:29.011Z,18.70
2022-12-31T11:49:49.304Z,18.83
2022-12-31T11:51:36.108Z,18.92
2022-12-31T11:53:10.794Z,19.02
2022-12-31T11:54:59.784Z,19.15
2022-12-31T11:56:35.617Z,19.16
2022-12-31T11:58:16.792Z,19.15
2022-12-31T11:59:48.510Z,19.08
2022-12-31T12:01:32.235Z,19.10
2022-12-31T12:03:05.011Z,19.22
2022-12-31T12:04:36.748Z,19.32
2022-12-31T12:06:09.813Z,19.38
2022-12-31T12:07:41.485Z,19.50
2022-12-31T12:09:17.114Z,19.55
2022-12-31T12:10:50.076Z,19.60
2022-12-31T12:12:21.991Z,19.60
2022-12-31T12:13:53.759Z,19.65
2022-12-31T12:15:27.348Z,19.64
2022-12-31T12:17:04.406Z,19.65
2022-12-31T12:18:45.168Z,19.68
2022-12-31T12:20:18.447Z,19.75
2022-12-31T12:21:50.271Z,19.77
2022-12-31T12:23:25.310Z,19.78
2022-12-31T12:24:58.094Z,19.72
2022-12-31T12:26:41.714Z,19.63
2022-12-31T12:28:19.337Z,19.55
2022-12-31T12:29:51.014Z,19.62
2022-12-31T12:31:23.154Z,19.68
2022-12-31T12:32:55.910Z,19.68
2022-12-31T12:34:31.634Z,19.63
2022-12-31T12:36:06.565Z,19.57
2022-12-31T12:37:38.332Z,19.52
2022-12-31T12:39:16.129Z,19.49
2022-12-31T12:40:57.480Z,19.51
2022-12-31T12:42:29.447Z,19.58
2022-12-31T12:44:07.900Z,19.66
2022-12-31T12:45:42.217Z,19.74
2022-12-31T12:47:16.446Z,19.81
2022-12-31T12:48:49.609Z,19.90
2022-12-31T12:50:22.311Z,19.93
2022-12-31T12:52:09.438Z,19.97
2022-12-31T12:53:44.546Z,20.03
2022-12-31T12:55:31.212Z,20.13
2022-12-31T12:57:05.699Z,20.22
2022-12-31T12:58:37.330Z,20.27
2022-12-31T13:00:23.560Z,20.30
2022-12-31T13:02:01.984Z,20.35
2022-12-31T13:04:32.005Z,20.41
2022-12-31T13:06:02.580Z,20.46
2022-12-31T13:07:53.071Z,20.34
2022-12-31T13:09:34.328Z,20.26
2022-12-31T13:11:26.578Z,20.28
2022-12-31T13:13:23.498Z,20.13
2022-12-31T13:14:55.972Z,20.14
2022-12-31T13:16:51.750Z,20.11
2022-12-31T13:18:23.384Z,20.12
2022-12-31T13:20:11.921Z,20.19
2022-12-31T13:21:49.634Z,20.29
2022-12-31T13:23:42.165Z,20.38
2022-12-31T13:25:28.479Z,20.47
2022-12-31T13:27:04.109Z,20.57
2022-12-31T13:28:35.873Z,20.57
2022-12-31T13:30:27.904Z,20.57
2022-12-31T13:31:59.681Z,20.46
2022-12-31T13:33:50.764Z,20.42
2022-12-31T13:35:34.250Z,20.44
2022-12-31T13:37:07.476Z,20.46
2022-12-31T13:38:41.465Z,20.46
2022-12-31T13:40:31.303Z,20.45
2022-12-31T13:42:05.984Z,20.41
2022-12-31T13:43:48.951Z,20.38
2022-12-31T13:45:27.069Z,20.32
2022-12-31T13:47:13.102Z,20.33
2022-12-31T13:48:47.215Z,20.34
2022-12-31T13:50:36.730Z,20.32
2022-12-31T13:52:08.542Z,20.30
2022-12-31T13:54:00.113Z,20.27
2022-12-31T13:55:38.883Z,20.29
2022-12-31T13:57:28.887Z,20.29
2022-12-31T13:59:12.811Z,20.19
2022-12-31T14:00:45.467Z,20.09
2022-12-31T14:02:25.892Z,19.98
2022-12-31T14:04:14.875Z,19.96
2022-12-31T14:05:51.093Z,19.74
2022-12-31T14:07:27.816Z,19.72
2022-12-31T14:09:02.604Z,19.64
2022-12-31T14:10:47.429Z,19.47
2022-12-31T14:12:37.617Z,19.40
2022-12-31T14:14:21.380Z,19.36
2022-12-31T14:16:05.534Z,19.28
2022-12-31T14:17:46.328Z,19.22
2022-12-31T14:19:31.027Z,19.17
2022-12-31T14:21:07.252Z,19.16
2022-12-31T14:22:42.224Z,19.14
2022-12-31T14:24:19.304Z,19.08
2022-12-31T14:25:55.465Z,19.02
2022-12-31T14:27:29.135Z,18.95
2022-12-31T14:29:09.896Z,18.84
2022-12-31T14:30:41.552Z,18.76
2022-12-31T14:32:19.071Z,18.67
2022-12-31T14:33:59.565Z,18.62
2022-12-31T14:35:39.835Z,18.56
2022-12-31T14:37:16.268Z,18.48
2022-12-31T14:38:51.772Z,18.39
2022-12-31T14:40:33.353Z,18.33
2022-12-31T14:42:34.183Z,18.26
2022-12-31T14:44:20.986Z,18.09
2022-12-31T14:46:04.834Z,17.99
2022-12-31T14:47:42.306Z,17.92
2022-12-31T14:49:14.053Z,17.91
2022-12-31T14:50:45.688Z,17.86
2022-12-31T14:52:22.069Z,17.81
2022-12-31T14:53:53.981Z,17.72
2022-12-31T14:55:28.720Z,17.54
2022-12-31T14:57:09.396Z,17.37
2022-12-31T14:58:42.749Z,17.25
2022-12-31T15:00:32.428Z,17.12
2022-12-31T15:02:04.415Z,16.97
2022-12-31T15:03:45.076Z,16.87
2022-12-31T15:05:19.566Z,16.72
2022-12-31T15:06:55.922Z,16.52
2022-12-31T15:08:36.851Z,16.27
2022-12-31T15:10:27.300Z,16.09
2022-12-31T15:12:17.561Z,15.92
2022-12-31T15:13:49.197Z,15.69
2022-12-31T15:15:38.534Z,15.53
2022-12-31T15:17:24.967Z,15.44
2022-12-31T15:19:05.632Z,15.31
2022-12-31T15:20:46.561Z,15.20
2022-12-31T15:22:24.627Z,15.12
2022-12-31T15:23:56.871Z,15.05
2022-12-31T15:25:28.641Z,14.95
2022-12-31T15:27:04.752Z,14.86
2022-12-31T15:28:39.741Z,14.76
2022-12-31T15:30:46.651Z,14.67
2022-12-31T15:32:23.082Z,14.47
2022-12-31T15:33:57.484Z,14.32
2022-12-31T15:35:30.156Z,14.18
2022-12-31T15:37:21.620Z,14.10
2022-12-31T15:39:03.761Z,14.02
2022-12-31T15:40:42.534Z,14.02
2022-12-31T15:42:37.719Z,14.02
2022-12-31T15:44:28.800Z,14.01
2022-12-31T15:46:00.577Z,13.96
2022-12-31T15:47:34.728Z,13.94
2022-12-31T15:49:15.910Z,13.88
2022-12-31T15:50:47.894Z,13.83
2022-12-31T15:52:23.373Z,13.79
2022-12-31T15:53:55.117Z,13.76
2022-12-31T15:55:29.205Z,13.74
2022-12-31T15:57:05.638Z,13.72
2022-12-31T15:58:40.632Z,13.67
2022-12-31T16:00:17.152Z,13.65
2022-12-31T16:01:48.914Z,13.64
2022-12-31T16:03:24.337Z,13.62
2022-12-31T16:04:56.091Z,13.56
2022-12-31T16:06:29.076Z,13.48
2022-12-31T16:08:00.757Z,13.44
2022-12-31T16:09:36.111Z,13.42
2022-12-31T16:11:08.186Z,13.41
2022-12-31T16:12:44.704Z,13.43
2022-12-31T16:14:22.683Z,13.45
2022-12-31T16:15:58.152Z,13.52
2022-12-31T16:17:30.593Z,13.54
2022-12-31T16:19:02.275Z,13.54
2022-12-31T16:20:34.804Z,13.44
2022-12-31T16:22:19.283Z,13.42
2022-12-31T16:23:51.707Z,13.47
2022-12-31T16:25:32.260Z,13.54
2022-12-31T16:27:08.465Z,13.59
2022-12-31T16:28:40.834Z,13.64
2022-12-31T16:30:23.009Z,13.65
2022-12-31T16:31:54.737Z,13.67
2022-12-31T16:33:26.439Z,13.70
2022-12-31T16:34:58.177Z,13.72
2022-12-31T16:36:30.037Z,13.71
2022-12-31T16:38:05.383Z,13.68
2022-12-31T16:39:37.323Z,13.68
2022-12-31T16:41:15.692Z,13.70
2022-12-31T16:42:47.943Z,13.68
2022-12-31T16:44:29.537Z,13.60
2022-12-31T16:46:10.510Z,13.47
2022-12-31T16:47:43.500Z,13.36
2022-12-31T16:49:16.104Z,13.27
2022-12-31T16:50:48.567Z,13.19
2022-12-31T16:52:28.214Z,13.15
2022-12-31T16:54:02.304Z,13.05
2022-12-31T16:55:37.015Z,12.96
2022-12-31T16:57:11.108Z,12.88
2022-12-31T16:58:43.112Z,12.88
2022-12-31T17:00:16.125Z,12.90
2022-12-31T17:01:47.903Z,12.90
2022-12-31T17:03:19.681Z,12.91
2022-12-31T17:04:56.152Z,12.87
2022-12-31T17:06:28.867Z,12.84
2022-12-31T17:08:03.803Z,12.84
2022-12-31T17:09:36.798Z,12.85
2022-12-31T17:11:23.209Z,12.86
2022-12-31T17:14:48.945Z,12.90
2022-12-31T17:16:20.590Z,12.85
2022-12-31T17:17:53.626Z,12.79
2022-12-31T17:19:38.631Z,12.73
2022-12-31T17:21:10.313Z,12.68
2022-12-31T17:22:42.410Z,12.61
2022-12-31T17:24:14.168Z,12.51
2022-12-31T17:25:45.995Z,12.41
2022-12-31T17:27:17.833Z,12.33
2022-12-31T17:28:50.315Z,12.26
2022-12-31T17:30:22.223Z,12.27
2022-12-31T17:32:05.680Z,12.29
2022-12-31T17:33:37.429Z,12.27
2022-12-31T17:35:27.577Z,12.24
2022-12-31T17:37:03.492Z,12.16
2022-12-31T17:38:35.152Z,12.12
2022-12-31T17:40:49.916Z,12.07
2022-12-31T17:42:08.403Z,11.97
2022-12-31T17:43:40.136Z,11.85
2022-12-31T17:45:21.800Z,11.78
2022-12-31T17:46:53.837Z,11.71
2022-12-31T17:48:26.070Z,11.65
2022-12-31T17:49:57.703Z,11.61
2022-12-31T17:51:29.471Z,11.57
2022-12-31T17:53:02.980Z,11.57
2022-12-31T17:54:34.623Z,11.52
2022-12-31T17:56:06.870Z,11.47
2022-12-31T17:57:38.690Z,11.44
2022-12-31T17:59:38.540Z,11.45
2022-12-31T18:01:10.448Z,11.44
2022-12-31T18:02:42.280Z,11.42
2022-12-31T18:04:14.437Z,11.36
2022-12-31T18:05:46.140Z,11.35
2022-12-31T18:07:17.882Z,11.37
2022-12-31T18:08:49.739Z,11.42
2022-12-31T18:10:22.408Z,11.44
2022-12-31T18:11:58.227Z,11.45
2022-12-31T18:13:33.186Z,11.45
2022-12-31T18:15:05.116Z,11.43
2022-12-31T18:16:36.845Z,11.36
2022-12-31T18:18:27.368Z,11.32
2022-12-31T18:20:06.750Z,11.29
2022-12-31T18:21:38.788Z,11.23
2022-12-31T18:23:14.452Z,11.19
2022-12-31T18:24:46.295Z,11.24
2022-12-31T18:26:18.883Z,11.27
2022-12-31T18:27:50.874Z,11.21
2022-12-31T18:29:22.777Z,11.19
2022-12-31T18:30:54.388Z,11.17
2022-12-31T18:32:29.375Z,11.14
2022-12-31T18:34:00.993Z,11.08
2022-12-31T18:36:06.941Z,11.07
2022-12-31T18:37:25.522Z,11.11
2022-12-31T18:38:57.134Z,11.16
2022-12-31T18:40:28.951Z,11.22
2022-12-31T18:42:00.939Z,11.22
2022-12-31T18:43:32.501Z,11.15
2022-12-31T18:45:04.633Z,11.04
2022-12-31T18:46:36.342Z,10.99
2022-12-31T18:48:08.101Z,10.98
2022-12-31T18:49:39.992Z,10.99
2022-12-31T18:51:15.001Z,11.02
2022-12-31T18:52:46.736Z,11.03
2022-12-31T18:54:18.422Z,11.00
2022-12-31T18:55:51.076Z,10.88
2022-12-31T18:57:22.825Z,10.79
2022-12-31T18:58:54.461Z,10.76
2022-12-31T19:00:26.219Z,10.71
2022-12-31T19:01:58.146Z,10.66
2022-12-31T19:03:30.905Z,10.62
2022-12-31T19:05:02.551Z,10.57
2022-12-31T19:06:34.219Z,10.51
2022-12-31T19:08:05.912Z,10.47
2022-12-31T19:09:46.143Z,10.44
2022-12-31T19:11:19.038Z,10.41
2022-12-31T19:12:50.742Z,10.40
2022-12-31T19:14:24.169Z,10.37
2022-12-31T19:15:55.867Z,10.36
2022-12-31T19:17:27.471Z,10.36
2022-12-31T19:19:02.653Z,10.35
2022-12-31T19:20:39.041Z,10.35
2022-12-31T19:22:15.351Z,10.32
2022-12-31T19:23:47.225Z,10.28
2022-12-31T19:25:26.182Z,10.28
2022-12-31T19:26:57.899Z,10.26
2022-12-31T19:28:29.820Z,10.24
2022-12-31T19:30:01.486Z,10.19
2022-12-31T19:31:33.317Z,10.20
2022-12-31T19:33:05.033Z,10.17
2022-12-31T19:34:36.682Z,10.16
2022-12-31T19:36:17.876Z,10.15
2022-12-31T19:37:50.301Z,10.11
2022-12-31T19:39:21.921Z,10.07
2022-12-31T19:40:53.854Z,10.09
2022-12-31T19:42:25.864Z,10.11
2022-12-31T19:43:57.521Z,10.14
2022-12-31T19:45:29.337Z,10.13
2022-12-31T19:47:00.980Z,10.14
2022-12-31T19:48:33.240Z,10.14
2022-12-31T19:50:05.411Z,10.10
2022-12-31T19:51:36.940Z,10.06
2022-12-31T19:53:10.175Z,9.99
2022-12-31T19:54:41.713Z,9.95
2022-12-31T19:56:13.905Z,9.92
2022-12-31T19:57:46.003Z,9.86
2022-12-31T19:59:17.610Z,9.78
2022-12-31T20:00:55.571Z,9.76
2022-12-31T20:02:30.072Z,9.76
2022-12-31T20:04:02.010Z,9.76
2022-12-31T20:05:33.647Z,9.79
2022-12-31T20:07:05.419Z,9.83
2022-12-31T20:08:37.867Z,9.81
2022-12-31T20:10:11.011Z,9.82
2022-12-31T20:11:42.702Z,9.79
2022-12-31T20:13:14.295Z,9.75
2022-12-31T20:14:45.970Z,9.74
2022-12-31T20:16:18.202Z,9.71
2022-12-31T20:17:50.120Z,9.69
2022-12-31T20:19:21.800Z,9.68
2022-12-31T20:20:55.964Z,9.71
2022-12-31T20:22:27.847Z,9.76
2022-12-31T20:23:59.574Z,9.82
2022-12-31T20:25:31.562Z,9.85
2022-12-31T20:27:03.400Z,9.81
2022-12-31T20:28:35.696Z,9.78
2022-12-31T20:30:08.164Z,9.78
2022-12-31T20:31:39.867Z,9.75
2022-12-31T20:33:17.300Z,9.72
2022-12-31T20:34:50.624Z,9.73
2022-12-31T20:36:22.686Z,9.66
2022-12-31T20:37:54.177Z,9.64
2022-12-31T20:39:25.949Z,9.66
2022-12-31T20:41:08.281Z,9.70
2022-12-31T20:42:41.083Z,9.78
2022-12-31T20:44:12.686Z,9.85
2022-12-31T20:45:45.105Z,9.93
2022-12-31T20:47:16.683Z,9.99
2022-12-31T20:48:48.580Z,10.01
2022-12-31T20:50:20.080Z,10.05
2022-12-31T20:51:52.327Z,10.05
2022-12-31T20:53:24.120Z,9.97
2022-12-31T20:54:55.923Z,9.87
2022-12-31T20:56:28.313Z,9.82
2022-12-31T20:58:00.854Z,9.79
2022-12-31T20:59:32.675Z,9.74
2022-12-31T21:01:07.772Z,9.69
2022-12-31T21:02:42.492Z,9.62
2022-12-31T21:04:14.940Z,9.48
2022-12-31T21:05:50.313Z,9.39
2022-12-31T21:07:22.350Z,9.32
2022-12-31T21:08:57.455Z,9.27
2022-12-31T21:10:28.985Z,9.22
2022-12-31T21:12:19.278Z,9.14
2022-12-31T21:13:50.994Z,9.12
2022-12-31T21:15:22.756Z,9.07
2022-12-31T21:16:54.365Z,9.08
2022-12-31T21:18:25.967Z,9.10
2022-12-31T21:19:57.712Z,9.14
2022-12-31T21:21:29.267Z,9.11
2022-12-31T21:23:00.935Z,9.09
2022-12-31T21:24:32.762Z,9.09
2022-12-31T21:26:04.556Z,9.05
2022-12-31T21:27:36.324Z,9.04
2022-12-31T21:29:08.029Z,9.00
2022-12-31T21:30:40.097Z,8.96
2022-12-31T21:32:11.914Z,8.91
2022-12-31T21:33:44.107Z,8.86
2022-12-31T21:35:42.291Z,8.79
2022-12-31T21:37:07.575Z,8.77
2022-12-31T21:38:39.246Z,8.76
2022-12-31T21:40:11.132Z,8.71
2022-12-31T21:41:51.838Z,8.67
2022-12-31T21:43:23.510Z,8.63
2022-12-31T21:44:55.175Z,8.59
2022-12-31T21:46:27.140Z,8.59
2022-12-31T21:48:18.194Z,8.55
2022-12-31T21:49:49.882Z,8.51
2022-12-31T21:51:21.594Z,8.48
2022-12-31T21:52:53.157Z,8.48
2022-12-31T21:54:43.447Z,8.48
2022-12-31T21:56:17.379Z,8.44
2022-12-31T21:58:24.164Z,8.42
2022-12-31T22:00:31.837Z,8.36
2022-12-31T22:02:10.555Z,8.38
2022-12-31T22:03:42.955Z,8.39
2022-12-31T22:05:19.895Z,8.41
2022-12-31T22:06:53.687Z,8.42
2022-12-31T22:08:25.563Z,8.41
2022-12-31T22:09:57.349Z,8.42